Time;durP1;ratioP1;P1;durP2;ratioP2;P2;SDS_P1;SDS_P2;PMS_P1;PMS_P2;Temp;Humidity;BMP_temperature;BMP_pressure;BME280_temperature;BME280_humidity;BME280_pressure;Samples;Min_cycle;Max_cycle;Signal;HPM_P1;HPM_P2
2020/12/22 00:01:46;;;;;;;15.97;13.23;;;12.80;99.90;;;11.26;100.00;100383.72;5034761;28;20725;-80
2020/12/22 00:04:32;;;;;;;15.47;12.27;;;12.80;99.90;;;11.27;100.00;100390.63;5026975;28;20231;-80
2020/12/22 00:07:17;;;;;;;15.90;13.43;;;12.80;99.90;;;11.29;100.00;100373.25;5033034;28;20216;-80
2020/12/22 00:10:03;;;;;;;15.33;11.87;;;12.90;99.90;;;11.30;100.00;100393.09;5033710;28;20246;-80
2020/12/22 00:12:48;;;;;;;14.00;11.97;;;12.90;99.90;;;11.33;100.00;100380.88;5034117;28;20600;-80
2020/12/22 00:15:35;;;;;;;14.73;11.33;;;12.90;99.90;;;11.39;100.00;100382.41;5034323;28;20215;-80
2020/12/22 00:18:22;;;;;;;13.63;10.97;;;12.90;99.90;;;11.41;100.00;100390.94;5034095;28;20274;-79
2020/12/22 00:21:19;;;;;;;14.73;12.37;;;13.00;99.90;;;11.42;100.00;100395.22;5024107;28;20206;-79
2020/12/22 00:24:18;;;;;;;12.07;10.33;;;13.00;99.90;;;11.47;100.00;100397.66;5034004;28;20693;-79
2020/12/22 00:27:45;;;;;;;14.37;11.77;;;12.90;99.90;;;11.53;100.00;100398.28;5034829;28;20247;-80
2020/12/22 00:34:05;;;;;;;12.70;10.07;;;13.00;99.90;;;11.53;100.00;100387.94;5023410;28;20363;-80
2020/12/22 00:37:26;;;;;;;11.20;8.70;;;13.10;99.90;;;11.57;100.00;100383.47;5036043;28;20250;-79
2020/12/22 00:40:14;;;;;;;12.97;9.63;;;13.10;99.90;;;11.63;100.00;100364.25;5036944;28;20207;-80
2020/12/22 00:43:03;;;;;;;10.93;9.77;;;13.10;99.90;;;11.59;100.00;100366.97;5024907;28;20299;-80
2020/12/22 00:45:49;;;;;;;11.40;8.97;;;13.20;99.90;;;11.70;100.00;100373.50;5037083;28;20212;-80
2020/12/22 00:48:36;;;;;;;10.77;8.80;;;13.20;99.90;;;11.72;100.00;100361.31;5037576;28;20204;-80
2020/12/22 00:51:23;;;;;;;9.53;7.50;;;13.10;99.90;;;11.74;100.00;100380.25;5024608;28;20265;-80
2020/12/22 00:54:09;;;;;;;7.43;5.80;;;13.20;99.90;;;11.75;100.00;100371.56;5038886;28;20203;-82
2020/12/22 00:56:56;;;;;;;9.43;7.63;;;13.30;99.90;;;11.82;100.00;100365.25;5038373;28;20207;-81
2020/12/22 00:59:42;;;;;;;9.07;7.60;;;13.30;99.90;;;11.78;100.00;100366.28;5038092;28;20202;-81
2020/12/22 01:02:27;;;;;;;8.60;7.00;;;13.30;99.90;;;11.80;100.00;100377.44;5037515;28;20226;-80
2020/12/22 01:05:13;;;;;;;8.83;7.63;;;13.40;99.90;;;11.83;100.00;100363.53;5052348;28;20623;-80
2020/12/22 01:07:58;;;;;;;9.53;7.27;;;13.40;99.90;;;11.90;100.00;100365.81;5038785;28;20755;-80
2020/12/22 01:10:45;;;;;;;9.17;7.97;;;13.40;99.90;;;11.96;100.00;100353.53;5038635;28;20284;-80
2020/12/22 01:13:30;;;;;;;9.83;6.87;;;13.40;99.90;;;11.98;100.00;100350.00;5037039;28;20274;-81
2020/12/22 01:16:15;;;;;;;9.60;8.50;;;13.40;99.90;;;12.08;100.00;100353.91;5039478;28;20251;-81
2020/12/22 01:19:00;;;;;;;9.13;7.40;;;13.40;99.90;;;12.16;100.00;100360.53;5038834;28;20235;-81
2020/12/22 01:21:46;;;;;;;9.10;7.10;;;13.50;99.90;;;12.08;100.00;100353.06;5038823;28;20222;-81
2020/12/22 01:24:31;;;;;;;6.20;5.57;;;13.50;99.90;;;12.07;100.00;100352.22;5038520;28;20651;-80
2020/12/22 01:27:18;;;;;;;6.63;5.77;;;13.50;99.90;;;12.03;100.00;100355.84;5038123;28;20255;-80
2020/12/22 01:30:05;;;;;;;6.87;6.10;;;13.60;99.90;;;12.04;100.00;100356.69;5038813;28;20287;-80
2020/12/22 01:32:53;;;;;;;7.97;6.20;;;13.60;99.90;;;11.99;100.00;100356.88;5026364;28;20224;-82
2020/12/22 01:35:41;;;;;;;6.80;5.53;;;13.60;99.90;;;12.03;100.00;100355.00;5037799;28;20227;-82
2020/12/22 01:38:28;;;;;;;5.13;4.57;;;13.60;99.90;;;12.01;100.00;100349.03;5038298;28;20196;-80
2020/12/22 01:41:18;;;;;;;6.53;5.40;;;13.70;99.90;;;12.05;100.00;100351.44;5025840;28;20280;-81
2020/12/22 01:44:19;;;;;;;4.90;4.40;;;13.80;99.90;;;12.02;100.00;100359.34;5038045;28;20234;-81
2020/12/22 01:47:09;;;;;;;3.10;2.90;;;13.80;99.90;;;12.04;100.00;100356.69;5038332;28;20223;-80
2020/12/22 01:50:08;;;;;;;4.50;4.10;;;13.60;99.90;;;12.07;100.00;100357.41;5027694;28;20203;-82
2020/12/22 01:53:19;;;;;;;3.57;3.27;;;13.80;99.90;;;12.10;100.00;100351.25;5036771;28;20737;-80
2020/12/22 01:59:14;;;;;;;4.60;3.70;;;14.20;99.90;;;12.08;100.00;100347.91;5040301;28;20199;-81
2020/12/22 02:02:05;;;;;;;2.70;2.50;;;13.80;99.90;;;12.08;100.00;100350.47;5033084;28;20251;-81
2020/12/22 02:04:57;;;;;;;2.60;2.40;;;13.60;99.90;;;-146.47;100.00;66290.13;5039705;28;20235;-81
2020/12/22 02:08:57;;;;;;;4.43;2.93;;;13.80;99.90;;;-146.47;100.00;66290.13;5038957;28;20282;-81
2020/12/22 02:11:45;;;;;;;3.37;2.63;;;13.70;99.90;;;-146.47;100.00;66290.13;5038249;28;20270;-81
2020/12/22 02:15:27;;;;;;;3.10;2.63;;;13.50;99.90;;;-146.47;100.00;66290.13;5038308;28;20250;-80
2020/12/22 02:19:32;;;;;;;2.17;2.00;;;13.70;99.90;;;-146.47;100.00;66290.13;5034030;28;20297;-81
2020/12/22 02:22:21;;;;;;;2.00;1.90;;;14.00;99.90;;;-146.47;100.00;66290.13;5038560;28;20223;-80
2020/12/22 02:25:16;;;;;;;1.97;1.87;;;13.60;99.90;;;-146.47;100.00;66290.13;5038515;28;20219;-81
2020/12/22 02:28:02;;;;;;;2.20;2.00;;;13.90;99.90;;;-146.47;100.00;66290.13;5024674;28;20267;-80
2020/12/22 02:30:49;;;;;;;2.30;2.07;;;13.80;99.90;;;-146.47;100.00;66290.13;5038934;28;20203;-80
2020/12/22 02:45:31;;;;;;;2.47;1.90;;;14.10;99.90;;;-146.47;100.00;66290.13;5029857;28;20203;-80
2020/12/22 02:48:26;;;;;;;2.10;2.00;;;13.80;99.90;;;-146.47;100.00;66290.13;5033150;28;20354;-80
2020/12/22 02:51:19;;;;;;;1.97;1.87;;;13.70;99.90;;;-146.47;100.00;66290.13;5034217;28;20727;-81
2020/12/22 02:54:37;;;;;;;2.17;2.07;;;14.00;99.90;;;-146.47;100.00;66290.13;5023030;28;20235;-80
2020/12/22 02:57:47;;;;;;;2.03;1.93;;;13.80;99.90;;;-146.47;100.00;66290.13;5036364;28;20208;-80
2020/12/22 03:04:52;;;;;;;2.27;2.17;;;13.80;99.90;;;-146.47;100.00;66290.13;5034878;28;20227;-81
2020/12/22 03:08:12;;;;;;;3.00;2.77;;;13.80;99.90;;;-146.47;100.00;66290.13;5037426;28;20243;-80
2020/12/22 03:11:21;;;;;;;3.00;2.70;;;13.80;99.90;;;-146.47;100.00;66290.13;5038114;28;20229;-80
2020/12/22 03:14:52;;;;;;;3.63;3.10;;;13.70;99.90;;;-146.47;100.00;66290.13;5026068;28;20195;-81
2020/12/22 03:21:09;;;;;;;3.80;3.50;;;13.70;99.90;;;-146.47;100.00;66290.13;5028365;28;20231;-81
2020/12/22 03:24:46;;;;;;;3.53;3.23;;;13.70;99.90;;;-146.47;100.00;66290.13;5033625;28;20256;-81
2020/12/22 03:44:07;;;;;;;5.00;4.10;;;13.70;99.90;;;-146.47;100.00;66290.13;5032697;28;20322;-81
2020/12/22 03:47:03;;;;;;;4.40;4.00;;;13.60;99.90;;;-146.47;100.00;66290.13;5026458;28;20223;-81
2020/12/22 03:50:16;;;;;;;4.70;3.80;;;13.70;99.90;;;-146.47;100.00;66290.13;5034985;28;20751;-80
2020/12/22 03:53:07;;;;;;;3.60;3.30;;;13.70;99.90;;;-146.47;100.00;66290.13;5035337;28;20973;-82
2020/12/22 03:56:04;;;;;;;3.97;3.57;;;13.70;99.90;;;-146.47;100.00;66290.13;5034048;28;20262;-81
2020/12/22 03:58:58;;;;;;;5.07;4.37;;;13.80;99.90;;;-146.47;100.00;66290.13;5036495;28;20246;-81
2020/12/22 04:06:01;;;;;;;4.83;4.40;;;13.70;99.90;;;-146.47;100.00;66290.13;5024707;28;20203;-80
2020/12/22 04:16:51;;;;;;;5.43;4.87;;;13.80;99.90;;;-146.47;100.00;66290.13;5035226;28;20221;-80
2020/12/22 04:19:45;;;;;;;4.20;3.80;;;13.80;99.90;;;-146.47;100.00;66290.13;5031930;28;20504;-80
2020/12/22 04:45:31;;;;;;;7.20;6.27;;;13.90;99.90;;;-146.47;100.00;66290.13;3307062;26;20242;-80
2020/12/22 05:26:42;;;;;;;6.40;5.30;;;13.70;99.90;;;-146.47;100.00;66290.13;4712071;30;20225;-80
2020/12/22 05:29:57;;;;;;;8.60;5.50;;;13.70;99.90;;;-146.47;100.00;66290.13;4882457;28;20209;-81
2020/12/22 05:33:14;;;;;;;5.23;4.30;;;13.70;99.90;;;-146.47;100.00;66290.13;4968848;28;20229;-80
2020/12/22 05:36:15;;;;;;;3.73;3.23;;;13.70;99.90;;;-146.47;100.00;66290.13;4966531;28;20281;-80
2020/12/22 05:39:00;;;;;;;3.90;3.40;;;13.70;99.90;;;12.08;100.00;100350.47;4976915;28;20708;-81
2020/12/22 05:41:46;;;;;;;4.50;3.00;;;13.70;99.90;;;-146.47;100.00;66290.13;4979012;28;20238;-81
2020/12/22 05:44:36;;;;;;;3.53;3.20;;;13.60;99.90;;;-146.47;100.00;66290.13;4969205;28;20214;-80
2020/12/22 05:47:22;;;;;;;4.57;2.90;;;13.60;99.90;;;-146.47;100.00;66290.13;4960866;28;20217;-82
2020/12/22 05:50:09;;;;;;;3.37;3.07;;;13.60;99.90;;;-146.47;100.00;66290.13;4968645;28;20223;-80
2020/12/22 05:52:56;;;;;;;5.60;4.20;;;13.50;99.90;;;-146.47;100.00;66290.13;4971978;28;20240;-81
2020/12/22 05:55:42;;;;;;;5.47;4.10;;;13.50;99.90;;;-146.47;100.00;66290.13;4960027;28;20630;-81
2020/12/22 05:58:30;;;;;;;6.20;5.17;;;13.50;99.90;;;-146.47;100.00;66290.13;4961946;28;20254;-80
2020/12/22 06:01:30;;;;;;;7.47;5.30;;;13.60;99.90;;;-146.47;100.00;66290.13;4972039;28;20719;-79
2020/12/22 06:04:18;;;;;;;8.47;5.63;;;13.60;99.90;;;-146.47;100.00;66290.13;4957764;28;20231;-82
2020/12/22 06:07:06;;;;;;;7.17;6.40;;;13.50;99.90;;;-146.47;100.00;66290.13;4969459;28;20266;-79
2020/12/22 06:09:51;;;;;;;7.40;5.37;;;13.60;99.90;;;-146.47;100.00;66290.13;4983359;28;20257;-81
2020/12/22 06:12:39;;;;;;;7.70;5.77;;;13.50;99.90;;;-146.47;100.00;66290.13;4967589;28;20229;-82
2020/12/22 06:15:26;;;;;;;9.97;6.27;;;13.50;99.90;;;-146.47;100.00;66290.13;4965412;28;20272;-80
2020/12/22 06:18:12;;;;;;;8.63;6.23;;;13.50;99.90;;;-146.47;100.00;66290.13;4968897;28;20241;-83
2020/12/22 06:20:57;;;;;;;9.40;6.40;;;13.50;99.90;;;-146.47;100.00;66290.13;4965558;28;20197;-82
2020/12/22 06:23:42;;;;;;;9.07;6.10;;;13.50;99.90;;;-146.47;100.00;66290.13;4961545;28;20732;-81
2020/12/22 06:26:27;;;;;;;7.00;6.03;;;13.60;99.90;;;-146.47;100.00;66290.13;4960327;28;20604;-79
2020/12/22 06:29:25;;;;;;;8.33;6.27;;;13.60;99.90;;;-146.47;100.00;66290.13;4961296;28;20257;-81
2020/12/22 06:32:26;;;;;;;6.83;5.77;;;13.60;99.90;;;-146.47;100.00;66290.13;4961846;28;20226;-81
2020/12/22 06:35:30;;;;;;;8.17;5.60;;;13.60;99.90;;;-146.47;100.00;66290.13;4978116;28;20229;-82
2020/12/22 06:38:27;;;;;;;6.17;5.43;;;13.60;99.90;;;-146.47;100.00;66290.13;4967785;28;20607;-81
2020/12/22 06:41:25;;;;;;;5.57;4.57;;;13.60;99.90;;;-146.47;100.00;66290.13;4961425;28;20636;-81
2020/12/22 06:44:25;;;;;;;8.33;5.03;;;13.70;99.90;;;-146.47;100.00;66290.13;4960916;28;20223;-81
2020/12/22 06:47:10;;;;;;;7.80;5.60;;;13.70;99.90;;;-146.47;100.00;66290.13;4965341;28;20309;-81
2020/12/22 06:49:56;;;;;;;6.43;4.70;;;13.70;99.90;;;-146.47;100.00;66290.13;4969849;28;20213;-82
2020/12/22 06:52:44;;;;;;;10.73;6.07;;;13.70;99.90;;;-146.47;100.00;66290.13;4961479;28;20724;-82
2020/12/22 06:55:48;;;;;;;7.20;5.20;;;13.70;99.90;;;-146.47;100.00;66290.13;4973728;28;20680;-81
2020/12/22 06:58:39;;;;;;;6.00;4.60;;;13.70;99.90;;;-146.47;100.00;66290.13;4969018;28;20218;-81
2020/12/22 07:01:36;;;;;;;7.13;5.00;;;13.70;99.90;;;-146.47;100.00;66290.13;4976626;28;20570;-81
2020/12/22 07:04:46;;;;;;;9.30;6.87;;;13.70;99.90;;;-146.47;100.00;66290.13;4965407;28;20265;-81
2020/12/22 07:08:00;;;;;;;14.47;7.13;;;13.90;99.90;;;-146.47;100.00;66290.13;4963491;28;20237;-81
2020/12/22 07:10:50;;;;;;;16.07;7.30;;;13.70;99.90;;;-146.47;100.00;66290.13;4976247;28;20229;-81
2020/12/22 07:13:36;;;;;;;10.17;7.10;;;13.70;99.90;;;-146.47;100.00;66290.13;4965342;28;20237;-81
2020/12/22 07:16:24;;;;;;;10.43;6.80;;;13.70;99.90;;;-146.47;100.00;66290.13;4976760;28;20217;-81
2020/12/22 07:19:11;;;;;;;13.10;6.93;;;13.70;99.90;;;-146.47;100.00;66290.13;4964891;28;20210;-81
2020/12/22 07:21:58;;;;;;;9.33;6.63;;;13.60;99.90;;;-146.47;100.00;66290.13;4965443;28;20233;-81
2020/12/22 07:24:45;;;;;;;11.03;5.97;;;13.60;99.90;;;-146.47;100.00;66290.13;4965754;28;20258;-81
2020/12/22 07:27:32;;;;;;;8.73;5.67;;;13.50;99.90;;;-146.47;100.00;66290.13;4965890;28;20305;-82
2020/12/22 07:30:17;;;;;;;8.70;4.73;;;13.60;99.90;;;-146.47;100.00;66290.13;4970327;28;20205;-81
2020/12/22 07:33:04;;;;;;;12.97;4.20;;;13.50;99.90;;;-146.47;100.00;66290.13;4977076;28;20288;-81
2020/12/22 07:35:49;;;;;;;10.20;4.90;;;13.50;99.90;;;-146.47;100.00;66290.13;4968948;28;20782;-82
2020/12/22 07:38:34;;;;;;;8.63;4.53;;;13.50;99.90;;;-146.47;100.00;66290.13;4977903;28;20536;-82
2020/12/22 07:41:26;;;;;;;6.07;3.47;;;13.40;99.90;;;-146.47;100.00;66290.13;4970119;28;20579;-81
2020/12/22 07:44:14;;;;;;;10.80;4.27;;;13.40;99.90;;;-146.47;100.00;66290.13;4968422;28;20409;-81
2020/12/22 07:46:58;;;;;;;9.93;4.43;;;13.40;99.90;;;-146.47;100.00;66290.13;4973842;28;20787;-80
2020/12/22 07:49:44;;;;;;;11.70;4.40;;;13.30;99.90;;;-146.47;100.00;66290.13;4966341;28;20326;-81
2020/12/22 07:52:29;;;;;;;11.37;4.07;;;13.30;99.90;;;-146.47;100.00;66290.13;4968923;28;20721;-81
2020/12/22 07:55:15;;;;;;;10.63;4.03;;;13.30;99.90;;;-146.47;100.00;66290.13;4968380;28;20214;-81
2020/12/22 07:58:02;;;;;;;10.73;5.20;;;13.30;99.90;;;-146.47;100.00;66290.13;4972719;28;20253;-80
2020/12/22 08:00:47;;;;;;;9.50;5.33;;;13.20;99.90;;;-146.47;100.00;66290.13;4970309;28;20213;-82
2020/12/22 08:03:32;;;;;;;14.17;4.83;;;13.20;99.90;;;-146.47;100.00;66290.13;4965284;28;20682;-81
2020/12/22 08:06:18;;;;;;;14.13;5.87;;;13.20;99.90;;;-146.47;100.00;66290.13;4963087;28;20578;-81
2020/12/22 08:09:03;;;;;;;10.27;5.47;;;13.20;99.90;;;-146.47;100.00;66290.13;4962301;28;20774;-81
2020/12/22 08:11:51;;;;;;;11.53;5.87;;;13.30;99.90;;;-146.47;100.00;66290.13;4969693;28;20639;-81
2020/12/22 08:14:41;;;;;;;11.90;5.50;;;13.20;99.90;;;-146.47;100.00;66290.13;4970189;28;20256;-82
2020/12/22 08:17:27;;;;;;;10.30;4.93;;;13.20;99.90;;;-146.47;100.00;66290.13;4967636;28;20206;-82
2020/12/22 08:20:14;;;;;;;16.33;5.23;;;13.20;99.90;;;-146.47;100.00;66290.13;4973753;28;20237;-80
2020/12/22 08:22:59;;;;;;;13.20;4.80;;;13.20;99.90;;;-146.47;100.00;66290.13;4974128;28;20281;-81
2020/12/22 08:25:48;;;;;;;9.13;3.77;;;13.10;99.90;;;-146.47;100.00;66290.13;4971343;28;20221;-83
2020/12/22 08:28:35;;;;;;;7.43;3.30;;;13.20;99.90;;;-146.47;100.00;66290.13;4973433;28;20730;-82
2020/12/22 08:31:26;;;;;;;11.60;3.80;;;13.20;99.90;;;-146.47;100.00;66290.13;4963395;28;20297;-80
2020/12/22 08:34:18;;;;;;;11.33;3.50;;;13.20;99.90;;;-146.47;100.00;66290.13;4966404;28;20214;-82
2020/12/22 08:37:09;;;;;;;10.37;3.50;;;13.20;99.90;;;-146.47;100.00;66290.13;4976190;28;20252;-81
2020/12/22 08:39:55;;;;;;;11.13;3.37;;;13.20;99.90;;;-146.47;100.00;66290.13;4975680;28;20248;-82
2020/12/22 08:42:47;;;;;;;13.63;3.40;;;13.10;99.90;;;-146.47;100.00;66290.13;4969939;28;20218;-80
2020/12/22 08:45:32;;;;;;;9.13;2.47;;;13.10;99.90;;;-146.47;100.00;66290.13;4972134;28;20231;-82
2020/12/22 08:48:18;;;;;;;10.03;2.70;;;13.10;99.90;;;-146.47;100.00;66290.13;4956672;28;20233;-81
2020/12/22 08:51:04;;;;;;;11.50;3.20;;;13.10;99.90;;;-146.47;100.00;66290.13;4967118;28;20293;-81
2020/12/22 08:53:52;;;;;;;11.93;3.03;;;13.10;99.90;;;-146.47;100.00;66290.13;4978443;28;20624;-82
2020/12/22 08:56:39;;;;;;;10.87;2.90;;;13.10;99.90;;;-146.47;100.00;66290.13;4979058;28;20695;-81
2020/12/22 08:59:28;;;;;;;7.23;3.00;;;13.00;99.90;;;-146.47;100.00;66290.13;4958691;28;20237;-80
2020/12/22 09:02:27;;;;;;;10.00;3.20;;;13.00;99.90;;;-146.47;100.00;66290.13;4970320;28;20473;-81
2020/12/22 09:05:15;;;;;;;11.30;3.30;;;13.00;99.90;;;-146.47;100.00;66290.13;4960545;28;20214;-79
2020/12/22 09:08:03;;;;;;;11.53;3.10;;;13.00;99.90;;;-146.47;100.00;66290.13;4961482;28;20339;-81
2020/12/22 09:10:49;;;;;;;10.50;2.90;;;13.00;99.90;;;-146.47;100.00;66290.13;4960848;28;20210;-81
2020/12/22 09:13:34;;;;;;;8.07;2.90;;;13.00;99.90;;;-146.47;100.00;66290.13;4966227;28;20234;-80
2020/12/22 09:16:19;;;;;;;5.50;2.70;;;13.00;99.90;;;-146.47;100.00;66290.13;4979028;28;20587;-81
2020/12/22 09:19:05;;;;;;;10.63;3.00;;;13.00;99.90;;;-146.47;100.00;66290.13;4968230;28;20225;-79
2020/12/22 09:22:00;;;;;;;8.63;3.23;;;13.00;99.90;;;-146.47;100.00;66290.13;4967687;28;20226;-81
2020/12/22 09:24:45;;;;;;;6.93;2.90;;;13.10;99.90;;;-146.47;100.00;66290.13;4969830;28;20221;-81
2020/12/22 09:27:32;;;;;;;7.37;3.07;;;13.10;99.90;;;-146.47;100.00;66290.13;4971105;28;20281;-82
2020/12/22 09:30:17;;;;;;;13.47;3.70;;;13.10;99.90;;;-146.47;100.00;66290.13;4966204;28;20213;-81
2020/12/22 09:33:03;;;;;;;7.10;2.60;;;13.10;99.90;;;-146.47;100.00;66290.13;4976389;28;20266;-82
2020/12/22 09:35:48;;;;;;;13.20;4.00;;;13.10;99.90;;;-146.47;100.00;66290.13;4965711;28;20246;-81
2020/12/22 09:38:34;;;;;;;9.03;4.07;;;13.10;99.90;;;-146.47;100.00;66290.13;4971389;28;20213;-81
2020/12/22 09:41:19;;;;;;;9.77;3.83;;;13.10;99.90;;;-146.47;100.00;66290.13;4965477;28;20214;-80
2020/12/22 09:44:04;;;;;;;7.00;4.37;;;13.20;99.90;;;-146.47;100.00;66290.13;4971437;28;20217;-81
2020/12/22 09:46:52;;;;;;;8.67;3.67;;;13.20;99.90;;;-146.47;100.00;66290.13;4972824;28;20229;-80
2020/12/22 09:49:37;;;;;;;11.30;4.17;;;13.20;99.90;;;-146.47;100.00;66290.13;4970711;28;20240;-82
2020/12/22 09:52:22;;;;;;;9.60;3.80;;;13.30;99.90;;;-146.47;100.00;66290.13;4977260;28;20237;-83
2020/12/22 09:55:08;;;;;;;13.73;3.80;;;13.30;99.90;;;-146.47;100.00;66290.13;4973198;28;20287;-81
2020/12/22 09:57:53;;;;;;;8.90;4.07;;;13.30;99.90;;;-146.47;100.00;66290.13;4968575;28;20692;-81
2020/12/22 10:00:38;;;;;;;10.07;3.83;;;13.30;99.90;;;-146.47;100.00;66290.13;4969760;28;20230;-81
2020/12/22 10:03:23;;;;;;;7.83;3.73;;;13.30;99.90;;;-146.47;100.00;66290.13;4958744;28;20230;-79
2020/12/22 10:06:09;;;;;;;9.53;4.10;;;13.40;99.90;;;-146.47;100.00;66290.13;4970558;28;20197;-80
2020/12/22 10:08:56;;;;;;;9.50;3.67;;;13.40;99.90;;;-146.47;100.00;66290.13;4962087;28;20542;-81
2020/12/22 10:11:42;;;;;;;9.77;3.57;;;13.40;99.90;;;-146.47;100.00;66290.13;4972325;28;20208;-81
2020/12/22 10:14:27;;;;;;;8.90;3.37;;;13.40;99.90;;;-146.47;100.00;66290.13;4971925;28;20571;-79
2020/12/22 10:17:12;;;;;;;6.97;3.50;;;13.50;99.90;;;-146.47;100.00;66290.13;4974423;28;20207;-80
2020/12/22 10:19:58;;;;;;;10.13;3.40;;;13.50;99.90;;;-146.47;100.00;66290.13;4969873;28;20216;-80
2020/12/22 10:22:43;;;;;;;12.33;3.93;;;13.50;99.90;;;-146.47;100.00;66290.13;4983393;28;20261;-79
2020/12/22 10:25:29;;;;;;;7.07;3.20;;;13.50;99.90;;;-146.47;100.00;66290.13;4975289;28;20218;-82
2020/12/22 10:28:15;;;;;;;6.67;2.77;;;13.50;99.90;;;-146.47;100.00;66290.13;4968422;28;20289;-81
2020/12/22 10:31:01;;;;;;;8.10;3.20;;;13.50;99.90;;;-146.47;100.00;66290.13;4967225;28;20249;-83
2020/12/22 10:33:47;;;;;;;7.73;3.07;;;13.50;99.90;;;-146.47;100.00;66290.13;4961843;28;20767;-82
2020/12/22 10:36:32;;;;;;;5.03;2.93;;;13.50;99.90;;;-146.47;100.00;66290.13;4969614;28;20225;-81
2020/12/22 10:39:17;;;;;;;7.23;2.93;;;13.50;99.90;;;-146.47;100.00;66290.13;4972278;28;20239;-81
2020/12/22 10:42:03;;;;;;;9.13;3.40;;;13.60;99.90;;;-146.47;100.00;66290.13;4975845;28;20269;-79
2020/12/22 10:44:48;;;;;;;8.83;3.20;;;13.60;99.90;;;-146.47;100.00;66290.13;4965051;28;20708;-81
2020/12/22 10:47:34;;;;;;;6.70;3.53;;;13.60;99.90;;;-146.47;100.00;66290.13;4967042;28;20233;-81
2020/12/22 10:50:19;;;;;;;8.40;3.50;;;13.60;99.90;;;-146.47;100.00;66290.13;4971350;28;20671;-79
2020/12/22 10:53:06;;;;;;;11.20;4.10;;;13.60;99.90;;;-146.47;100.00;66290.13;4965737;28;20246;-80
2020/12/22 10:55:52;;;;;;;8.57;4.20;;;13.60;99.90;;;-146.47;100.00;66290.13;4969280;28;20226;-82
2020/12/22 10:58:38;;;;;;;9.70;3.97;;;13.60;99.90;;;-146.47;100.00;66290.13;4967389;28;20242;-80
2020/12/22 11:01:24;;;;;;;6.07;3.40;;;13.60;99.90;;;-146.47;100.00;66290.13;4960295;28;20217;-80
2020/12/22 11:04:10;;;;;;;9.57;4.37;;;13.60;99.90;;;-146.47;100.00;66290.13;4976947;28;20246;-80
2020/12/22 11:07:02;;;;;;;12.50;4.43;;;13.60;99.90;;;-146.47;100.00;66290.13;4975690;28;20718;-81
2020/12/22 11:09:46;;;;;;;7.03;4.23;;;13.70;99.90;;;-146.47;100.00;66290.13;4961707;28;20221;-80
2020/12/22 11:12:32;;;;;;;10.67;4.90;;;13.70;99.90;;;-146.47;100.00;66290.13;4961549;28;20313;-82
2020/12/22 11:15:17;;;;;;;11.37;4.53;;;13.70;99.90;;;-146.47;100.00;66290.13;4969533;28;20235;-81
2020/12/22 11:18:03;;;;;;;8.13;4.00;;;13.70;99.90;;;-146.47;100.00;66290.13;4957806;28;20230;-81
2020/12/22 11:20:48;;;;;;;12.70;3.77;;;13.60;99.90;;;-146.47;100.00;66290.13;4966222;28;20290;-80
2020/12/22 11:23:33;;;;;;;11.20;3.90;;;13.60;99.90;;;-146.47;100.00;66290.13;4964556;28;20232;-80
2020/12/22 11:26:20;;;;;;;12.53;4.27;;;13.60;99.90;;;-146.47;100.00;66290.13;4971028;28;20284;-81
2020/12/22 11:29:05;;;;;;;7.23;3.53;;;13.60;99.90;;;-146.47;100.00;66290.13;4964853;28;20237;-80
2020/12/22 11:31:51;;;;;;;8.10;3.97;;;13.50;99.90;;;-146.47;100.00;66290.13;4959633;28;20763;-79
2020/12/22 11:34:37;;;;;;;8.50;3.27;;;13.50;99.90;;;-146.47;100.00;66290.13;4968805;28;20598;-80
2020/12/22 11:37:22;;;;;;;11.27;3.43;;;13.40;99.90;;;-146.47;100.00;66290.13;4970360;28;20662;-80
2020/12/22 11:40:07;;;;;;;11.83;3.53;;;13.40;99.90;;;-146.47;100.00;66290.13;4964222;28;20226;-81
2020/12/22 11:42:52;;;;;;;11.17;3.57;;;13.40;99.90;;;-146.47;100.00;66290.13;4963775;28;20589;-80
2020/12/22 11:45:37;;;;;;;15.90;4.40;;;13.40;99.90;;;-146.47;100.00;66290.13;4968872;28;20230;-81
2020/12/22 11:48:24;;;;;;;10.80;4.23;;;13.30;99.90;;;-146.47;100.00;66290.13;4979415;28;20245;-81
2020/12/22 11:51:15;;;;;;;19.33;7.07;;;13.30;99.90;;;-146.47;100.00;66290.13;4963336;28;20624;-80
2020/12/22 11:54:00;;;;;;;18.97;7.43;;;13.30;99.90;;;-146.47;100.00;66290.13;4963521;28;20715;-83
2020/12/22 11:56:47;;;;;;;15.50;7.67;;;13.20;99.90;;;-146.47;100.00;66290.13;4965629;28;20225;-81
2020/12/22 11:59:33;;;;;;;15.97;7.97;;;13.20;99.90;;;-146.47;100.00;66290.13;4969191;28;20216;-81
2020/12/22 12:02:18;;;;;;;8.77;5.40;;;13.20;99.90;;;-146.47;100.00;66290.13;4960567;28;20886;-81
2020/12/22 12:05:04;;;;;;;10.27;5.10;;;13.20;99.90;;;-146.47;100.00;66290.13;4973760;28;20252;-79
2020/12/22 12:07:50;;;;;;;10.43;4.03;;;13.10;99.90;;;-146.47;100.00;66290.13;4968752;28;20711;-81
2020/12/22 12:10:35;;;;;;;5.93;3.70;;;13.10;99.90;;;-146.47;100.00;66290.13;4971331;28;20217;-80
2020/12/22 12:13:20;;;;;;;4.47;3.00;;;13.10;99.90;;;-146.47;100.00;66290.13;4967123;28;20230;-81
2020/12/22 12:16:06;;;;;;;8.73;3.53;;;13.10;99.90;;;-146.47;100.00;66290.13;4970317;28;20241;-79
2020/12/22 12:18:51;;;;;;;3.87;2.50;;;13.00;99.90;;;-146.47;100.00;66290.13;4971135;28;20281;-79
2020/12/22 12:21:36;;;;;;;7.60;4.00;;;13.00;99.90;;;-146.47;100.00;66290.13;4963329;28;20232;-80
2020/12/22 12:24:22;;;;;;;5.43;3.40;;;13.00;99.90;;;-146.47;100.00;66290.13;4973784;28;20246;-78
2020/12/22 12:27:07;;;;;;;6.70;3.70;;;12.90;99.90;;;-146.47;100.00;66290.13;4972133;28;20213;-79
2020/12/22 12:29:53;;;;;;;6.43;4.10;;;12.90;99.90;;;-146.47;100.00;66290.13;4968118;28;20214;-81
2020/12/22 12:32:38;;;;;;;5.47;3.83;;;12.90;99.90;;;-146.47;100.00;66290.13;4967871;28;20604;-80
2020/12/22 12:35:23;;;;;;;3.63;3.33;;;12.90;99.90;;;-146.47;100.00;66290.13;4962496;28;20214;-80
2020/12/22 12:38:08;;;;;;;7.77;4.47;;;12.80;99.90;;;-146.47;100.00;66290.13;4970643;28;20269;-80
2020/12/22 12:40:54;;;;;;;12.97;4.20;;;12.80;99.90;;;-146.47;100.00;66290.13;4966777;28;20344;-79
2020/12/22 12:43:40;;;;;;;5.47;3.67;;;12.70;99.90;;;-146.47;100.00;66290.13;4979472;28;20233;-80
2020/12/22 12:46:25;;;;;;;11.23;4.30;;;12.70;99.90;;;-146.47;100.00;66290.13;4973856;28;20295;-80
2020/12/22 12:49:13;;;;;;;10.30;5.23;;;12.70;99.90;;;-146.47;100.00;66290.13;4976590;28;20303;-79
2020/12/22 12:51:58;;;;;;;9.37;4.90;;;12.60;99.90;;;-146.47;100.00;66290.13;4979222;28;20233;-79
2020/12/22 12:54:43;;;;;;;8.70;5.27;;;12.60;99.90;;;-146.47;100.00;66290.13;4967466;28;20202;-79
2020/12/22 12:57:29;;;;;;;10.47;5.30;;;12.60;99.90;;;-146.47;100.00;66290.13;4976089;28;20213;-78
2020/12/22 13:00:14;;;;;;;10.83;6.67;;;12.50;99.90;;;-146.47;100.00;66290.13;4968090;28;20217;-80
2020/12/22 13:03:00;;;;;;;10.77;5.67;;;12.50;99.90;;;-146.47;100.00;66290.13;4970092;28;20600;-78
2020/12/22 13:05:46;;;;;;;11.73;5.90;;;12.40;99.90;;;-146.47;100.00;66290.13;4968225;28;20214;-80
2020/12/22 13:08:31;;;;;;;10.93;5.77;;;12.40;99.90;;;-146.47;100.00;66290.13;4967859;28;20221;-79
2020/12/22 13:11:16;;;;;;;9.43;5.27;;;12.40;99.90;;;-146.47;100.00;66290.13;4975266;28;20262;-80
2020/12/22 13:14:02;;;;;;;13.43;6.20;;;12.40;99.90;;;-146.47;100.00;66290.13;4974805;28;20209;-81
2020/12/22 13:16:47;;;;;;;10.57;5.97;;;12.30;99.90;;;-146.47;100.00;66290.13;4983653;28;20280;-80
2020/12/22 13:19:34;;;;;;;9.80;5.10;;;12.40;99.90;;;-146.47;100.00;66290.13;4986896;28;20217;-79
2020/12/22 13:22:19;;;;;;;10.30;4.70;;;12.30;99.90;;;-146.47;100.00;66290.13;4972960;28;20272;-78
2020/12/22 13:25:05;;;;;;;8.63;4.70;;;12.30;99.90;;;-146.47;100.00;66290.13;4973038;28;20702;-80
2020/12/22 13:27:50;;;;;;;7.90;4.97;;;12.30;99.90;;;-146.47;100.00;66290.13;4966932;28;20669;-81